Time;durP1;ratioP1;P1;durP2;ratioP2;P2;SDS_P1;SDS_P2;PMS_P1;PMS_P2;Temp;Humidity;BMP_temperature;BMP_pressure;BME280_temperature;BME280_humidity;BME280_pressure;Samples;Min_cycle;Max_cycle;Signal;HPM_P1;HPM_P2
2023/02/05 00:01:51;;;;;;;22.63;17.80;;;7.20;99.90;;;;;;5056693;28;20028;-92
2023/02/05 00:04:17;;;;;;;23.98;19.85;;;7.20;99.90;;;;;;5056596;28;20108;-92
2023/02/05 00:06:44;;;;;;;24.08;18.90;;;7.20;99.90;;;;;;5056456;28;20036;-92
2023/02/05 00:09:10;;;;;;;22.67;18.05;;;7.10;99.90;;;;;;5056213;28;20505;-92
2023/02/05 00:11:35;;;;;;;23.15;18.13;;;7.10;99.90;;;;;;5056440;28;20067;-92
2023/02/05 00:14:01;;;;;;;22.48;17.67;;;7.20;99.90;;;;;;5056246;28;20051;-91
2023/02/05 00:16:26;;;;;;;21.20;16.20;;;7.20;99.90;;;;;;5038394;28;20170;-91
2023/02/05 00:18:53;;;;;;;19.30;14.60;;;7.10;99.90;;;;;;5055907;28;20021;-91
2023/02/05 00:21:20;;;;;;;20.10;15.15;;;6.90;99.90;;;;;;5056003;28;20120;-92
2023/02/05 00:23:46;;;;;;;20.80;15.95;;;6.80;99.90;;;;;;5055841;28;20519;-92
2023/02/05 00:26:13;;;;;;;21.25;16.65;;;6.90;99.90;;;;;;5056106;28;20036;-92
2023/02/05 00:28:40;;;;;;;22.88;16.35;;;7.10;99.90;;;;;;5055996;28;20071;-92
2023/02/05 00:31:11;;;;;;;20.27;16.13;;;7.00;99.90;;;;;;5038263;28;20076;-92
2023/02/05 00:33:37;;;;;;;21.55;16.75;;;7.00;99.90;;;;;;5056472;28;20505;-91
2023/02/05 00:36:03;;;;;;;20.67;16.30;;;6.90;99.90;;;;;;5038036;28;20037;-92
2023/02/05 00:38:29;;;;;;;19.98;15.60;;;6.90;99.90;;;;;;5055798;28;20083;-92
2023/02/05 00:40:55;;;;;;;20.27;16.00;;;6.90;99.90;;;;;;5055408;28;20060;-92
2023/02/05 00:43:20;;;;;;;17.70;14.77;;;6.80;99.90;;;;;;5055727;28;20060;-92
2023/02/05 00:45:46;;;;;;;17.08;14.38;;;6.90;99.90;;;;;;5037967;28;20052;-91
2023/02/05 00:48:12;;;;;;;18.35;15.00;;;6.90;99.90;;;;;;5055570;28;20595;-91
2023/02/05 00:50:38;;;;;;;17.80;14.50;;;6.90;99.90;;;;;;5055463;28;20036;-92
2023/02/05 00:53:03;;;;;;;21.95;16.45;;;7.00;99.90;;;;;;5037769;28;20025;-92
2023/02/05 00:55:29;;;;;;;24.77;21.48;;;7.10;99.90;;;;;;5054567;28;20066;-90
2023/02/05 00:57:55;;;;;;;20.33;16.75;;;7.10;99.90;;;;;;5055667;28;20025;-91
2023/02/05 01:00:21;;;;;;;20.70;18.30;;;7.20;99.90;;;;;;5055429;28;20029;-92
2023/02/05 01:02:46;;;;;;;19.65;15.95;;;7.10;99.90;;;;;;5037241;28;20017;-92
2023/02/05 01:05:12;;;;;;;18.70;15.63;;;7.20;99.90;;;;;;5055568;28;20032;-92
2023/02/05 01:07:38;;;;;;;19.15;15.60;;;7.10;99.90;;;;;;5055222;28;20029;-91
2023/02/05 01:10:05;;;;;;;19.65;16.55;;;7.00;99.90;;;;;;5036990;28;20163;-92
2023/02/05 01:12:32;;;;;;;16.77;13.52;;;7.10;99.90;;;;;;5036826;28;20029;-92
2023/02/05 01:14:59;;;;;;;18.05;14.60;;;7.10;99.90;;;;;;5055024;28;20063;-92
2023/02/05 01:17:24;;;;;;;17.33;14.20;;;7.10;99.90;;;;;;5055387;28;20036;-91
2023/02/05 01:19:50;;;;;;;18.35;13.77;;;7.10;99.90;;;;;;5037413;28;20033;-92
2023/02/05 01:22:16;;;;;;;17.27;14.40;;;7.20;99.90;;;;;;5054507;28;20459;-92
2023/02/05 01:24:41;;;;;;;15.75;12.88;;;7.20;99.90;;;;;;5054829;28;20493;-92
2023/02/05 01:27:07;;;;;;;15.60;13.35;;;7.30;99.90;;;;;;5054864;28;20393;-91
2023/02/05 01:29:32;;;;;;;16.08;12.90;;;7.30;99.90;;;;;;5037063;28;20025;-91
2023/02/05 01:31:58;;;;;;;14.77;11.75;;;7.40;99.90;;;;;;5037225;28;20029;-91
2023/02/05 01:34:24;;;;;;;14.45;12.20;;;7.40;99.90;;;;;;5036649;28;20053;-91
2023/02/05 01:36:49;;;;;;;13.70;11.32;;;7.30;99.90;;;;;;5055193;28;20037;-92
2023/02/05 01:39:15;;;;;;;15.32;12.63;;;7.40;99.90;;;;;;5054320;28;20017;-91
2023/02/05 01:41:43;;;;;;;13.85;10.82;;;7.30;99.90;;;;;;5054798;28;20071;-92
2023/02/05 01:44:17;;;;;;;12.48;10.57;;;7.30;99.90;;;;;;5036834;28;20017;-92
2023/02/05 01:46:45;;;;;;;11.98;10.57;;;7.40;99.90;;;;;;5054446;28;20040;-91
2023/02/05 01:49:18;;;;;;;13.00;11.05;;;7.30;99.90;;;;;;5036658;28;20064;-92
2023/02/05 01:51:46;;;;;;;11.00;9.82;;;7.30;99.90;;;;;;5054541;28;20086;-92
2023/02/05 01:54:13;;;;;;;12.32;10.10;;;7.20;99.90;;;;;;5053529;28;20508;-92
2023/02/05 01:56:44;;;;;;;14.27;11.35;;;7.30;99.90;;;;;;5054333;28;20029;-92
2023/02/05 01:59:15;;;;;;;14.32;11.18;;;7.40;99.90;;;;;;5036574;28;20021;-91
2023/02/05 02:01:42;;;;;;;11.70;10.50;;;7.40;99.90;;;;;;5054124;28;20021;-92
2023/02/05 02:04:10;;;;;;;12.30;11.00;;;7.30;99.90;;;;;;5054023;28;20026;-92
2023/02/05 02:06:36;;;;;;;12.35;10.20;;;7.30;99.90;;;;;;5036545;28;20025;-91
2023/02/05 02:09:05;;;;;;;13.43;10.68;;;7.20;99.90;;;;;;5035857;28;20120;-91
2023/02/05 02:11:36;;;;;;;15.82;11.75;;;7.20;99.90;;;;;;5036842;28;20021;-91
2023/02/05 02:14:05;;;;;;;11.95;10.60;;;7.10;99.90;;;;;;5036457;28;20124;-92
2023/02/05 02:16:33;;;;;;;11.70;10.48;;;7.10;99.90;;;;;;5053372;28;20029;-91
2023/02/05 02:19:01;;;;;;;14.30;11.02;;;7.20;99.90;;;;;;5035889;28;20025;-91
2023/02/05 02:21:48;;;;;;;13.75;11.07;;;7.30;99.90;;;;;;5035926;28;20040;-92
2023/02/05 02:24:52;;;;;;;11.85;10.48;;;7.30;99.90;;;;;;5035722;28;20021;-92
2023/02/05 02:27:42;;;;;;;12.40;10.05;;;7.30;99.90;;;;;;5053708;28;20543;-92
2023/02/05 02:30:11;;;;;;;11.95;10.48;;;7.10;99.90;;;;;;5053655;28;20033;-91
2023/02/05 02:32:45;;;;;;;11.93;10.23;;;7.30;99.90;;;;;;5053373;28;20037;-92
2023/02/05 02:35:17;;;;;;;14.50;10.65;;;7.30;99.90;;;;;;5053830;28;20037;-92
2023/02/05 02:37:54;;;;;;;12.23;10.77;;;7.30;99.90;;;;;;5052926;28;20028;-92
2023/02/05 02:40:31;;;;;;;13.27;10.70;;;7.10;99.90;;;;;;5053616;28;20474;-91
2023/02/05 02:43:04;;;;;;;11.48;10.18;;;7.10;99.90;;;;;;5054099;28;20107;-91
2023/02/05 02:45:34;;;;;;;12.05;10.77;;;7.10;99.90;;;;;;5035643;28;20025;-92
2023/02/05 02:48:00;;;;;;;11.70;9.95;;;7.20;99.90;;;;;;5053638;28;20378;-91
2023/02/05 02:50:31;;;;;;;11.25;9.98;;;7.10;99.90;;;;;;5035439;28;20078;-91
2023/02/05 02:53:07;;;;;;;13.20;11.07;;;7.20;99.90;;;;;;5052763;28;20515;-90
2023/02/05 02:55:37;;;;;;;11.55;9.93;;;7.30;99.90;;;;;;5052835;28;20068;-91
2023/02/05 02:58:06;;;;;;;13.70;11.55;;;7.30;99.90;;;;;;5052980;28;20029;-91
2023/02/05 03:00:33;;;;;;;12.00;10.60;;;7.30;99.90;;;;;;5053035;28;20100;-91
2023/02/05 03:03:04;;;;;;;12.65;10.32;;;7.40;99.90;;;;;;5053365;28;20033;-92
2023/02/05 03:05:31;;;;;;;12.20;10.35;;;7.40;99.90;;;;;;5052785;28;20029;-91
2023/02/05 03:08:15;;;;;;;13.57;11.40;;;7.30;99.90;;;;;;5052685;28;20036;-91
2023/02/05 03:10:47;;;;;;;13.10;10.02;;;7.30;99.90;;;;;;5053049;28;20420;-92
2023/02/05 03:13:12;;;;;;;11.88;9.88;;;7.10;99.90;;;;;;5035465;28;20133;-92
2023/02/05 03:15:42;;;;;;;14.30;10.32;;;7.20;99.90;;;;;;5035473;28;20127;-92
2023/02/05 03:18:09;;;;;;;11.82;10.38;;;7.10;99.90;;;;;;5035119;28;20036;-92
2023/02/05 03:20:50;;;;;;;12.18;10.77;;;7.00;99.90;;;;;;5052467;28;20062;-91
2023/02/05 03:23:17;;;;;;;12.30;10.75;;;7.00;99.90;;;;;;5052866;28;20029;-92
2023/02/05 03:25:42;;;;;;;11.52;10.35;;;7.00;99.90;;;;;;5052787;28;20539;-92
2023/02/05 03:28:09;;;;;;;12.00;10.25;;;6.90;99.90;;;;;;5035046;28;20017;-92
2023/02/05 03:31:08;;;;;;;14.38;10.73;;;6.90;99.90;;;;;;5053326;28;20029;-92
2023/02/05 03:34:05;;;;;;;12.82;10.82;;;7.10;99.90;;;;;;5034908;28;20065;-91
2023/02/05 03:36:51;;;;;;;14.85;11.38;;;7.20;99.90;;;;;;5052491;28;20036;-92
2023/02/05 03:39:32;;;;;;;15.52;11.65;;;7.20;99.90;;;;;;5030578;28;20036;-91
2023/02/05 03:42:00;;;;;;;13.05;10.93;;;7.20;99.90;;;;;;5035208;28;20124;-92
2023/02/05 03:44:59;;;;;;;12.18;10.45;;;7.10;99.90;;;;;;5052558;28;20031;-91
2023/02/05 03:47:47;;;;;;;12.90;10.60;;;7.00;99.90;;;;;;5052608;28;20060;-92
2023/02/05 03:50:54;;;;;;;12.23;10.00;;;7.20;99.90;;;;;;5052506;28;20053;-92
2023/02/05 03:53:52;;;;;;;12.98;10.60;;;7.20;99.90;;;;;;4971964;28;20158;-92
2023/02/05 03:56:24;;;;;;;11.93;10.68;;;7.20;99.90;;;;;;4933524;29;20161;-91
2023/02/05 03:58:53;;;;;;;13.02;11.18;;;7.20;99.90;;;;;;4933119;29;20107;-92
2023/02/05 04:01:19;;;;;;;12.45;11.15;;;7.30;99.90;;;;;;4933543;29;20039;-92
2023/02/05 04:03:45;;;;;;;12.35;10.77;;;7.30;99.90;;;;;;4917070;29;20457;-92
2023/02/05 04:06:11;;;;;;;12.75;9.98;;;7.10;99.90;;;;;;4917882;29;20039;-91
2023/02/05 04:08:37;;;;;;;12.40;10.68;;;7.20;99.90;;;;;;4917471;29;20027;-91
2023/02/05 04:11:03;;;;;;;14.43;11.07;;;7.30;99.90;;;;;;4933316;29;20047;-91
2023/02/05 04:13:29;;;;;;;11.68;10.48;;;7.30;99.90;;;;;;4933337;29;20488;-91
2023/02/05 04:15:54;;;;;;;12.23;10.93;;;7.20;99.90;;;;;;4933269;29;20099;-91
2023/02/05 04:18:20;;;;;;;11.35;9.95;;;7.10;99.90;;;;;;4917570;29;20036;-92
2023/02/05 04:20:46;;;;;;;13.43;11.23;;;7.30;99.90;;;;;;4933346;29;20114;-92
2023/02/05 04:23:11;;;;;;;13.25;11.07;;;7.40;99.90;;;;;;4942344;28;20062;-92
2023/02/05 04:25:38;;;;;;;12.13;10.82;;;7.40;99.90;;;;;;4991336;28;20105;-89
2023/02/05 04:28:04;;;;;;;13.68;10.30;;;7.40;99.90;;;;;;4991774;28;20046;-91
2023/02/05 04:30:31;;;;;;;12.70;10.63;;;7.40;99.90;;;;;;4974952;28;20026;-91
2023/02/05 04:32:56;;;;;;;13.45;10.55;;;7.50;99.90;;;;;;5012971;28;20057;-91
2023/02/05 04:35:22;;;;;;;12.07;10.05;;;7.50;99.90;;;;;;5052316;28;20393;-92
2023/02/05 04:37:48;;;;;;;12.82;10.68;;;7.50;99.90;;;;;;5052789;28;20025;-91
2023/02/05 04:40:13;;;;;;;12.68;10.70;;;7.40;99.90;;;;;;5055857;28;20033;-91
2023/02/05 04:42:39;;;;;;;12.77;10.95;;;7.20;99.90;;;;;;5056016;28;20040;-91
2023/02/05 04:45:05;;;;;;;15.48;10.63;;;7.10;99.90;;;;;;5037822;28;20038;-91
2023/02/05 04:47:31;;;;;;;12.93;10.13;;;7.10;99.90;;;;;;5054722;28;20485;-92
2023/02/05 04:49:57;;;;;;;13.10;10.80;;;7.20;99.90;;;;;;5055734;28;20021;-92
2023/02/05 04:52:23;;;;;;;15.75;11.05;;;7.10;99.90;;;;;;5038053;28;20366;-92
2023/02/05 04:54:49;;;;;;;13.23;11.05;;;7.20;99.90;;;;;;5037685;28;20422;-91
2023/02/05 04:57:15;;;;;;;12.27;10.18;;;7.00;99.90;;;;;;5037703;28;20029;-91
2023/02/05 04:59:40;;;;;;;14.55;11.15;;;6.90;99.90;;;;;;5055263;28;20442;-92
2023/02/05 05:02:06;;;;;;;16.23;11.77;;;6.90;99.90;;;;;;5055323;28;20033;-92
2023/02/05 05:04:31;;;;;;;16.30;11.98;;;6.90;99.90;;;;;;5055174;28;20021;-91
2023/02/05 05:06:57;;;;;;;13.35;11.40;;;6.80;99.90;;;;;;5055357;28;20025;-91
2023/02/05 05:09:24;;;;;;;12.68;11.18;;;6.70;99.90;;;;;;5055122;28;20021;-91
2023/02/05 05:11:55;;;;;;;12.13;10.32;;;6.60;99.90;;;;;;5055453;28;20444;-92
2023/02/05 05:14:21;;;;;;;12.15;10.77;;;6.70;99.90;;;;;;5055026;28;20033;-91
2023/02/05 05:16:48;;;;;;;12.73;11.23;;;6.60;99.90;;;;;;5054688;28;20041;-92
2023/02/05 05:19:13;;;;;;;13.52;10.48;;;6.70;99.90;;;;;;5055138;28;20095;-92
2023/02/05 05:21:39;;;;;;;14.13;11.63;;;6.70;99.90;;;;;;5037018;28;20362;-92
2023/02/05 05:24:05;;;;;;;14.15;11.25;;;6.70;99.90;;;;;;5036988;28;20552;-91
2023/02/05 05:26:30;;;;;;;17.75;11.55;;;6.70;99.90;;;;;;5037128;28;20115;-92
2023/02/05 05:28:56;;;;;;;13.20;11.13;;;6.80;99.90;;;;;;5037024;28;20040;-91
2023/02/05 05:31:23;;;;;;;13.45;11.60;;;6.80;99.90;;;;;;5054573;28;20025;-92
2023/02/05 05:33:49;;;;;;;15.38;11.85;;;6.60;99.90;;;;;;5037222;28;20044;-92
2023/02/05 05:36:15;;;;;;;13.30;11.45;;;6.70;99.90;;;;;;5054606;28;20119;-92
2023/02/05 05:38:41;;;;;;;12.50;11.20;;;6.70;99.90;;;;;;5036944;28;20063;-91
2023/02/05 05:43:55;;;;;;;13.32;11.50;;;6.80;99.90;;;;;;5054770;28;20040;-92
2023/02/05 05:46:25;;;;;;;13.95;11.05;;;6.80;99.90;;;;;;5054022;28;20025;-91
2023/02/05 05:48:56;;;;;;;15.45;11.18;;;6.80;99.90;;;;;;5036247;28;20025;-92
2023/02/05 05:51:23;;;;;;;12.95;10.90;;;6.80;99.90;;;;;;5054157;28;20070;-92
2023/02/05 05:53:49;;;;;;;13.43;10.90;;;6.90;99.90;;;;;;5054293;28;20028;-92
2023/02/05 05:56:15;;;;;;;16.33;11.38;;;6.90;99.90;;;;;;5054520;28;20442;-92
2023/02/05 05:58:41;;;;;;;13.65;11.27;;;6.90;99.90;;;;;;5054342;28;20025;-92
2023/02/05 06:01:08;;;;;;;13.32;11.15;;;6.90;99.90;;;;;;5036147;28;20048;-91
2023/02/05 06:03:33;;;;;;;13.40;10.90;;;6.90;99.90;;;;;;5053769;28;20029;-91
2023/02/05 06:06:01;;;;;;;13.05;11.18;;;6.90;99.90;;;;;;5054199;28;20041;-91
2023/02/05 06:08:26;;;;;;;14.10;10.98;;;6.70;99.90;;;;;;5054447;28;20400;-92
2023/02/05 06:10:52;;;;;;;14.25;11.30;;;6.70;99.90;;;;;;5054109;28;20033;-91
2023/02/05 06:13:17;;;;;;;14.05;11.27;;;6.70;99.90;;;;;;5054254;28;20066;-92
2023/02/05 06:15:43;;;;;;;17.45;11.40;;;6.70;99.90;;;;;;5053470;28;20052;-91
2023/02/05 06:18:09;;;;;;;13.40;10.27;;;6.30;99.90;;;;;;5053771;28;20021;-92
2023/02/05 06:20:34;;;;;;;13.35;11.00;;;6.10;99.90;;;;;;5053448;28;20056;-92
2023/02/05 06:23:00;;;;;;;16.08;11.43;;;6.50;99.90;;;;;;5036527;28;20580;-92
2023/02/05 06:25:25;;;;;;;14.15;11.45;;;6.30;99.90;;;;;;5035767;28;20028;-91
2023/02/05 06:27:51;;;;;;;14.65;11.48;;;6.50;99.90;;;;;;5053616;28;20120;-92
2023/02/05 06:30:17;;;;;;;14.38;12.55;;;6.50;99.90;;;;;;5035487;28;20032;-92
2023/02/05 06:32:42;;;;;;;15.73;11.57;;;6.20;99.90;;;;;;5053750;28;20048;-92
2023/02/05 06:35:08;;;;;;;15.80;11.35;;;6.20;99.90;;;;;;5035723;28;20037;-92
2023/02/05 06:37:34;;;;;;;14.88;11.38;;;6.20;99.90;;;;;;5053255;28;20017;-91
2023/02/05 06:39:59;;;;;;;15.55;12.27;;;6.40;99.90;;;;;;5035887;28;20393;-91
2023/02/05 06:42:25;;;;;;;16.50;11.85;;;6.10;99.90;;;;;;5053427;28;20025;-91
2023/02/05 06:44:50;;;;;;;16.27;12.35;;;6.00;99.90;;;;;;5035766;28;20033;-91
2023/02/05 06:47:16;;;;;;;16.15;12.10;;;6.10;99.90;;;;;;5053494;28;20036;-92
2023/02/05 06:49:42;;;;;;;15.98;12.57;;;5.90;99.90;;;;;;5036008;28;20036;-92
2023/02/05 06:52:07;;;;;;;16.38;12.00;;;5.90;99.90;;;;;;5035517;28;20389;-92
2023/02/05 06:54:33;;;;;;;19.40;13.75;;;6.30;99.90;;;;;;5035549;28;20071;-92
2023/02/05 06:56:58;;;;;;;14.27;12.18;;;6.50;99.90;;;;;;5053228;28;20041;-92
2023/02/05 06:59:24;;;;;;;17.40;12.13;;;6.00;99.90;;;;;;5035045;28;20017;-92
2023/02/05 07:01:50;;;;;;;14.45;12.27;;;5.80;99.90;;;;;;5053027;28;20112;-91
2023/02/05 07:04:15;;;;;;;16.67;12.20;;;5.80;99.90;;;;;;5035415;28;20020;-91
2023/02/05 07:06:41;;;;;;;15.45;12.90;;;6.30;99.90;;;;;;5053285;28;20116;-91
2023/02/05 07:09:07;;;;;;;15.75;12.35;;;5.80;99.90;;;;;;5035168;28;20081;-91
2023/02/05 07:11:32;;;;;;;16.30;12.93;;;5.70;99.90;;;;;;5052805;28;20089;-92
2023/02/05 07:14:01;;;;;;;16.65;12.13;;;5.80;99.90;;;;;;5052809;28;20024;-92
2023/02/05 07:16:29;;;;;;;14.13;11.77;;;5.70;99.90;;;;;;5053011;28;20044;-91
2023/02/05 07:18:54;;;;;;;15.00;12.68;;;5.70;99.90;;;;;;5035311;28;20021;-91
2023/02/05 07:21:20;;;;;;;15.40;11.95;;;5.80;99.90;;;;;;5035298;28;20025;-92
2023/02/05 07:23:45;;;;;;;14.60;12.27;;;5.90;99.90;;;;;;5035286;28;20489;-92
2023/02/05 07:26:14;;;;;;;16.70;12.68;;;6.20;99.90;;;;;;5052436;28;20116;-91
2023/02/05 07:28:40;;;;;;;13.77;11.68;;;5.80;99.90;;;;;;5052729;28;20501;-91
2023/02/05 07:31:08;;;;;;;17.65;12.65;;;5.80;99.90;;;;;;5052719;28;20032;-92
2023/02/05 07:33:35;;;;;;;15.45;12.65;;;5.90;99.90;;;;;;5035089;28;20080;-92
2023/02/05 07:36:05;;;;;;;14.98;11.70;;;5.90;99.90;;;;;;5052636;28;20033;-91
2023/02/05 07:38:32;;;;;;;16.58;11.75;;;5.90;99.90;;;;;;5052760;28;20025;-92
2023/02/05 07:40:58;;;;;;;16.73;11.70;;;5.90;99.90;;;;;;5053065;28;20033;-91
2023/02/05 07:43:24;;;;;;;14.65;12.48;;;5.80;99.90;;;;;;5052830;28;20028;-92
2023/02/05 07:46:01;;;;;;;17.48;12.07;;;5.90;99.90;;;;;;5052816;28;20037;-91
2023/02/05 07:48:26;;;;;;;13.40;10.85;;;6.10;99.90;;;;;;5035258;28;20025;-91
2023/02/05 07:50:52;;;;;;;13.80;10.73;;;6.20;99.90;;;;;;5053435;28;20051;-91
2023/02/05 07:53:18;;;;;;;12.57;10.93;;;6.30;99.90;;;;;;5052398;28;20029;-92
2023/02/05 07:55:44;;;;;;;13.50;10.82;;;6.40;99.90;;;;;;5052147;28;20087;-90
2023/02/05 07:58:10;;;;;;;14.52;11.43;;;6.60;99.90;;;;;;5052588;28;20029;-91
2023/02/05 08:00:35;;;;;;;14.93;11.60;;;6.70;99.90;;;;;;5052573;28;20045;-91
2023/02/05 08:03:01;;;;;;;13.32;10.52;;;6.60;99.90;;;;;;5052395;28;20025;-92
2023/02/05 08:05:27;;;;;;;15.70;11.50;;;6.90;99.90;;;;;;5052509;28;20385;-92
2023/02/05 08:07:53;;;;;;;15.40;11.73;;;6.80;99.90;;;;;;5035007;28;20040;-92
2023/02/05 08:10:19;;;;;;;12.40;10.00;;;7.40;99.90;;;;;;5034324;28;20028;-91
2023/02/05 08:12:44;;;;;;;12.82;9.65;;;8.40;99.90;;;;;;5052966;28;20029;-92
2023/02/05 08:15:10;;;;;;;12.68;9.80;;;9.20;99.90;;;;;;5038398;28;20447;-91
2023/02/05 08:17:36;;;;;;;12.48;9.95;;;9.80;99.90;;;;;;5056997;28;20117;-92
2023/02/05 08:20:06;;;;;;;10.68;9.27;;;10.60;99.90;;;;;;5056191;28;20472;-92
2023/02/05 08:22:34;;;;;;;12.25;9.52;;;10.00;99.90;;;;;;5055848;28;20028;-92
2023/02/05 08:24:59;;;;;;;11.02;9.13;;;11.20;99.90;;;;;;5055618;28;20087;-92
2023/02/05 08:27:25;;;;;;;9.23;8.23;;;14.00;99.90;;;;;;5038214;28;20480;-91
2023/02/05 08:29:51;;;;;;;9.82;8.52;;;14.50;99.90;;;;;;5056174;28;20392;-92
2023/02/05 08:32:16;;;;;;;9.93;8.25;;;16.50;99.90;;;;;;5055710;28;20029;-92
2023/02/05 08:34:42;;;;;;;10.52;8.93;;;18.60;99.90;;;;;;5055791;28;20029;-91
2023/02/05 08:37:08;;;;;;;9.75;7.95;;;19.60;99.90;;;;;;5055869;28;20025;-93
2023/02/05 08:39:34;;;;;;;9.85;8.00;;;18.90;99.90;;;;;;5055211;28;20033;-92
2023/02/05 08:41:59;;;;;;;9.57;8.55;;;16.80;99.90;;;;;;5055509;28;20029;-92
2023/02/05 08:44:26;;;;;;;8.82;7.93;;;15.80;99.90;;;;;;5055361;28;20021;-91
2023/02/05 08:46:52;;;;;;;10.10;8.93;;;13.10;99.90;;;;;;5055115;28;20060;-92
2023/02/05 08:49:18;;;;;;;10.82;8.95;;;12.80;99.90;;;;;;5055778;28;20094;-92
2023/02/05 08:51:43;;;;;;;9.85;8.90;;;12.30;99.90;;;;;;5037700;28;20017;-91
2023/02/05 08:54:11;;;;;;;10.02;9.00;;;11.20;99.90;;;;;;5054867;28;20033;-92
2023/02/05 08:56:39;;;;;;;10.52;9.13;;;10.60;99.90;;;;;;5055864;28;20025;-92
2023/02/05 08:59:05;;;;;;;12.13;9.43;;;10.50;99.90;;;;;;5055425;28;20028;-92
2023/02/05 09:01:31;;;;;;;10.60;8.95;;;9.80;99.90;;;;;;5055424;28;20048;-92
2023/02/05 09:03:56;;;;;;;10.15;8.73;;;9.10;99.90;;;;;;5037100;28;20116;-92
2023/02/05 09:06:22;;;;;;;9.88;8.60;;;8.90;99.90;;;;;;5038022;28;20095;-92
2023/02/05 09:08:48;;;;;;;10.30;8.52;;;8.80;99.90;;;;;;5054856;28;20359;-92
2023/02/05 09:11:19;;;;;;;12.60;10.50;;;8.20;99.90;;;;;;5055448;28;20033;-92
2023/02/05 09:13:45;;;;;;;11.93;10.18;;;8.00;99.90;;;;;;5055252;28;20017;-92
2023/02/05 09:16:10;;;;;;;9.60;8.57;;;8.10;99.90;;;;;;5037747;28;20093;-91
2023/02/05 09:18:36;;;;;;;13.95;9.15;;;8.00;99.90;;;;;;5055088;28;20021;-92
2023/02/05 09:21:06;;;;;;;13.45;11.95;;;8.30;99.90;;;;;;5054981;28;20040;-92
2023/02/05 09:23:31;;;;;;;13.00;8.32;;;8.40;99.90;;;;;;5054520;28;20507;-92
2023/02/05 09:25:58;;;;;;;12.27;8.43;;;8.60;99.90;;;;;;5037120;28;20033;-92
2023/02/05 09:28:24;;;;;;;10.55;8.82;;;8.70;99.90;;;;;;5054695;28;20033;-92
2023/02/05 09:30:50;;;;;;;10.07;8.43;;;8.80;99.90;;;;;;5037218;28;20044;-92
2023/02/05 09:33:16;;;;;;;10.45;8.88;;;8.80;99.90;;;;;;5054352;28;20049;-92
2023/02/05 09:35:42;;;;;;;10.40;7.45;;;8.80;99.90;;;;;;5054924;28;20091;-92
2023/02/05 09:38:13;;;;;;;13.20;7.65;;;9.10;99.90;;;;;;5036703;28;20096;-92
2023/02/05 09:41:05;;;;;;;17.02;8.98;;;9.50;99.90;;;;;;5054664;28;20043;-91
2023/02/05 09:43:55;;;;;;;11.45;8.32;;;9.90;99.90;;;;;;5036641;28;20480;-91
2023/02/05 09:46:55;;;;;;;11.95;9.07;;;11.30;99.90;;;;;;5036751;28;20118;-92
2023/02/05 09:49:27;;;;;;;10.75;7.57;;;11.70;99.90;;;;;;5036664;28;20045;-91
2023/02/05 09:52:06;;;;;;;11.20;7.82;;;11.10;99.90;;;;;;5053875;28;20028;-92
2023/02/05 09:54:37;;;;;;;8.27;6.80;;;11.40;99.90;;;;;;5053831;28;20021;-92
2023/02/05 09:57:09;;;;;;;15.65;7.93;;;10.90;99.90;;;;;;5054494;28;20044;-92
2023/02/05 09:59:35;;;;;;;13.02;7.63;;;10.50;99.90;;;;;;5054174;28;20021;-91
2023/02/05 10:02:14;;;;;;;8.73;7.28;;;10.30;99.90;;;;;;5036782;28;20032;-92
2023/02/05 10:04:40;;;;;;;10.95;7.28;;;9.90;99.90;;;;;;5054359;28;20017;-91
2023/02/05 10:07:27;;;;;;;10.55;7.35;;;12.40;99.90;;;;;;5053787;28;20362;-92
2023/02/05 10:10:10;;;;;;;13.68;6.55;;;21.50;99.90;;;;;;5054071;28;20078;-90
2023/02/05 10:13:17;;;;;;;8.30;6.05;;;18.90;99.90;;;;;;5054851;28;20044;-89
2023/02/05 10:15:52;;;;;;;9.18;6.95;;;20.60;99.90;;;;;;4953775;29;20060;-89
2023/02/05 10:18:41;;;;;;;9.60;6.90;;;22.50;99.90;;;;;;4953431;29;20420;-89
2023/02/05 10:21:38;;;;;;;12.82;7.25;;;24.60;99.90;;;;;;4952936;29;20260;-89
2023/02/05 10:24:35;;;;;;;11.15;7.25;;;25.90;99.90;;;;;;4953492;29;20027;-89
2023/02/05 10:27:20;;;;;;;12.30;7.80;;;26.00;99.90;;;;;;4953008;29;20488;-89
2023/02/05 10:30:04;;;;;;;10.35;7.65;;;27.60;99.90;;;;;;4953441;29;20028;-89
2023/02/05 10:32:51;;;;;;;9.23;7.78;;;24.50;99.90;;;;;;4972185;28;20034;-89
2023/02/05 10:35:25;;;;;;;10.40;8.15;;;18.20;99.90;;;;;;4961825;28;20046;-90
2023/02/05 10:37:56;;;;;;;14.50;8.00;;;15.80;99.90;;;;;;4972346;28;20031;-89
2023/02/05 10:40:29;;;;;;;11.35;7.07;;;15.40;99.90;;;;;;4972583;28;20174;-89
2023/02/05 10:43:04;;;;;;;7.15;6.25;;;15.80;99.90;;;;;;4969832;28;20090;-89
2023/02/05 10:45:30;;;;;;;7.53;6.20;;;17.80;99.90;;;;;;4972839;28;20507;-89
2023/02/05 10:48:21;;;;;;;8.88;5.80;;;16.90;99.90;;;;;;4972426;28;20027;-89
2023/02/05 10:50:55;;;;;;;6.55;4.80;;;16.00;99.90;;;;;;4972366;28;20519;-90
2023/02/05 10:53:23;;;;;;;6.80;4.50;;;15.50;99.90;;;;;;5043674;28;20060;-89
2023/02/05 10:55:49;;;;;;;5.72;3.63;;;17.90;99.90;;;;;;5052731;28;20090;-89
2023/02/05 10:58:23;;;;;;;5.65;4.07;;;17.40;99.90;;;;;;5034921;28;20362;-89
2023/02/05 11:00:49;;;;;;;5.38;3.78;;;16.90;99.90;;;;;;5052891;28;20024;-90
2023/02/05 11:03:18;;;;;;;9.20;4.97;;;16.80;99.90;;;;;;5039410;28;20029;-89
2023/02/05 11:05:45;;;;;;;6.03;3.95;;;18.60;99.90;;;;;;5035673;28;20033;-89
2023/02/05 11:08:32;;;;;;;6.70;3.65;;;19.80;99.90;;;;;;5053034;28;20508;-89
2023/02/05 11:10:57;;;;;;;6.80;3.95;;;18.60;99.90;;;;;;5052973;28;20366;-88
2023/02/05 11:13:24;;;;;;;6.35;3.47;;;18.00;99.90;;;;;;5052582;28;20021;-90
2023/02/05 11:16:05;;;;;;;6.55;3.35;;;16.80;99.90;;;;;;5034953;28;20043;-89
2023/02/05 11:18:36;;;;;;;7.72;4.00;;;15.50;99.90;;;;;;5052436;28;20110;-89
2023/02/05 11:21:04;;;;;;;6.95;3.42;;;15.80;99.90;;;;;;5034439;28;20532;-90
2023/02/05 11:23:32;;;;;;;6.35;3.45;;;16.00;99.90;;;;;;5052818;28;20012;-89
2023/02/05 11:26:15;;;;;;;6.07;3.70;;;15.40;99.90;;;;;;5052637;28;20047;-89
2023/02/05 11:28:41;;;;;;;7.80;4.63;;;14.50;99.90;;;;;;5035425;28;20032;-89
2023/02/05 11:31:31;;;;;;;7.00;3.90;;;14.00;99.90;;;;;;5053086;28;20020;-90
2023/02/05 11:34:15;;;;;;;5.90;3.60;;;14.00;99.90;;;;;;5052114;28;20040;-90
2023/02/05 11:36:53;;;;;;;7.28;3.65;;;13.40;99.90;;;;;;5052603;28;20037;-90
2023/02/05 11:39:35;;;;;;;5.95;3.53;;;13.10;99.90;;;;;;5035019;28;20025;-89
2023/02/05 11:42:27;;;;;;;6.85;3.75;;;12.70;99.90;;;;;;5054049;28;20082;-90
2023/02/05 11:44:59;;;;;;;5.63;3.75;;;12.70;99.90;;;;;;5050762;28;20041;-90
2023/02/05 11:47:33;;;;;;;7.80;3.78;;;12.40;99.90;;;;;;5040729;28;20032;-90
2023/02/05 11:50:00;;;;;;;7.95;3.92;;;12.20;99.90;;;;;;5056628;28;20025;-90
2023/02/05 11:52:29;;;;;;;6.13;3.58;;;12.40;99.90;;;;;;5038934;28;20380;-90
2023/02/05 11:54:55;;;;;;;7.15;4.05;;;12.20;99.90;;;;;;5056442;28;20029;-89
2023/02/05 11:57:20;;;;;;;5.95;3.30;;;12.10;99.90;;;;;;5056882;28;20033;-89
2023/02/05 12:00:11;;;;;;;11.65;7.57;;;11.70;99.90;;;;;;5056823;28;20029;-89
2023/02/05 12:02:38;;;;;;;8.95;4.30;;;11.80;99.90;;;;;;5056472;28;20032;-90
2023/02/05 12:05:15;;;;;;;6.75;3.55;;;12.10;99.90;;;;;;5056657;28;20035;-89
2023/02/05 12:07:46;;;;;;;8.25;3.50;;;12.10;99.90;;;;;;5056277;28;20620;-89
2023/02/05 12:10:27;;;;;;;5.70;3.03;;;12.30;99.90;;;;;;5056561;28;20217;-90
2023/02/05 12:13:13;;;;;;;7.85;3.33;;;13.00;99.90;;;;;;5052077;28;20053;-90
2023/02/05 12:15:45;;;;;;;5.25;2.85;;;13.10;99.90;;;;;;5055704;28;20045;-89
2023/02/05 12:18:25;;;;;;;6.05;2.70;;;13.60;99.90;;;;;;5055889;28;20032;-89
2023/02/05 12:21:28;;;;;;;5.97;2.85;;;13.60;99.90;;;;;;5056090;28;20473;-89
2023/02/05 12:24:24;;;;;;;7.28;3.33;;;12.80;99.90;;;;;;5056162;28;20036;-90
2023/02/05 12:27:06;;;;;;;5.15;3.00;;;12.70;99.90;;;;;;5056469;28;20035;-89
2023/02/05 12:30:09;;;;;;;5.45;2.95;;;12.60;99.90;;;;;;5051441;28;20477;-89
2023/02/05 12:33:00;;;;;;;5.85;3.15;;;12.60;99.90;;;;;;5037926;28;20048;-90
2023/02/05 12:35:38;;;;;;;5.00;3.47;;;12.90;99.90;;;;;;5055929;28;20183;-90
2023/02/05 12:38:26;;;;;;;5.63;2.88;;;12.90;99.90;;;;;;5055958;28;20028;-89
2023/02/05 12:41:09;;;;;;;5.72;4.30;;;12.90;99.90;;;;;;5055970;28;20029;-89
2023/02/05 12:43:42;;;;;;;6.68;3.88;;;12.50;99.90;;;;;;5055738;28;20017;-90
2023/02/05 12:46:32;;;;;;;6.30;3.50;;;12.50;99.90;;;;;;5055836;28;20032;-90
2023/02/05 12:49:06;;;;;;;7.03;3.35;;;12.30;99.90;;;;;;5055735;28;20104;-90
2023/02/05 12:51:42;;;;;;;5.25;3.20;;;12.10;99.90;;;;;;5056435;28;20029;-89
2023/02/05 12:54:27;;;;;;;9.02;4.00;;;12.20;99.90;;;;;;5055924;28;20480;-89
2023/02/05 12:57:10;;;;;;;6.15;3.35;;;11.90;99.90;;;;;;5055716;28;20036;-89
2023/02/05 12:59:59;;;;;;;7.95;3.70;;;11.70;99.90;;;;;;5054887;28;20104;-89
2023/02/05 13:02:48;;;;;;;10.07;5.47;;;11.80;99.90;;;;;;5055364;28;20073;-89